Terminal Aerodrome Forecast
Issued by NWS

Current Version | Previous Version | Text Only | Print | Product List | Glossary On
Versions: 1 2 3 4 5 6 7 8 9 10 11 12 13 14 15 16 17 18 19 20 21
000
FTUS43 KILX 230500
TAFBMI
TAF
KBMI 230537Z 2306/2406 VRB03KT P6SM SKC
     FM231400 16007KT P6SM SCT250
     FM240000 12006KT P6SM BKN200=

USA.gov is the U.S. government's official web portal to all federal, state and local government web resources and services.